Terminal Aerodrome Forecast
Issued by NWS Corpus Christi, TX

Home | Current Version | Previous Version | Text Only | Print | Product List | Glossary On
Versions: 1 2 3 4 5 6 7 8 9 10 11 12 13 14 15 16 17 18 19
000
FTUS44 KCRP 281129
TAFCRP
TAF
KCRP 281129Z 2812/2912 15011KT P6SM BKN015 WS020/18045KT
      TEMPO 2812/2814 SCT020
     FM281400 16016G22KT P6SM BKN025
     FM281800 16022G33KT P6SM OVC050
     FM290100 16022G28KT P6SM BKN025=

USA.gov is the U.S. government's official web portal to all federal, state and local government web resources and services.